Time;durP1;ratioP1;P1;durP2;ratioP2;P2;SDS_P1;SDS_P2;PMS_P1;PMS_P2;Temp;Humidity;BMP_temperature;BMP_pressure;BME280_temperature;BME280_humidity;BME280_pressure;Samples;Min_cycle;Max_cycle;Signal;HPM_P1;HPM_P2
2023/02/14 00:01:11;;;;;;;517.50;29.50;;;;;;;;;;6151509;23;20384;-57
2023/02/14 00:03:45;;;;;;;377.08;25.20;;;;;;;;;;6150007;23;20501;-54
2023/02/14 00:06:13;;;;;;;659.28;42.03;;;;;;;;;;6149924;23;20025;-57
2023/02/14 00:08:43;;;;;;;440.25;26.75;;;;;;;;;;6150666;23;20104;-64
2023/02/14 00:11:16;;;;;;;646.75;39.83;;;;;;;;;;6148906;23;20060;-62
2023/02/14 00:15:20;;;;;;;651.67;40.22;;;;;;;;;;6149222;23;20029;-62
2023/02/14 00:16:37;;;;;;;672.35;40.53;;;;;;;;;;6150123;23;20021;-61
2023/02/14 00:19:05;;;;;;;351.27;26.20;;;;;;;;;;6151004;23;20132;-61
2023/02/14 00:21:34;;;;;;;774.70;42.85;;;;;;;;;;6150836;23;20025;-61
2023/02/14 00:24:10;;;;;;;674.70;39.80;;;;;;;;;;6149590;23;20029;-61
2023/02/14 00:26:37;;;;;;;538.70;33.17;;;;;;;;;;6149827;23;20018;-61
2023/02/14 00:29:19;;;;;;;364.25;24.63;;;;;;;;;;6149767;23;20609;-61
2023/02/14 00:31:46;;;;;;;502.05;30.90;;;;;;;;;;6149805;23;20056;-68
2023/02/14 00:34:20;;;;;;;597.05;34.85;;;;;;;;;;6149547;23;20030;-68
2023/02/14 00:36:48;;;;;;;736.67;42.42;;;;;;;;;;6151074;23;20064;-68
2023/02/14 00:39:15;;;;;;;713.00;40.28;;;;;;;;;;6150138;23;20101;-67
2023/02/14 00:41:49;;;;;;;619.08;35.78;;;;;;;;;;6149089;23;20029;-68
2023/02/14 00:44:16;;;;;;;433.58;29.83;;;;;;;;;;6150066;23;20101;-67
2023/02/14 00:46:51;;;;;;;267.00;21.10;;;;;;;;;;6149883;23;20064;-57
2023/02/14 00:49:18;;;;;;;636.20;36.42;;;;;;;;;;6148408;23;20021;-68
2023/02/14 00:51:45;;;;;;;499.80;30.75;;;;;;;;;;6148368;23;20554;-60
2023/02/14 00:54:19;;;;;;;625.60;38.05;;;;;;;;;;6149798;23;20104;-60
2023/02/14 00:56:46;;;;;;;733.75;42.22;;;;;;;;;;6147118;23;20096;-60
2023/02/14 00:59:13;;;;;;;814.78;45.67;;;;;;;;;;6149242;23;20120;-60
2023/02/14 01:01:47;;;;;;;710.28;43.00;;;;;;;;;;6146937;23;20021;-60
2023/02/14 01:04:14;;;;;;;650.10;37.60;;;;;;;;;;6149319;23;20606;-60
2023/02/14 01:06:48;;;;;;;556.47;29.95;;;;;;;;;;6149051;23;20024;-58
2023/02/14 01:09:15;;;;;;;581.13;30.83;;;;;;;;;;6149397;23;20097;-60
2023/02/14 01:11:43;;;;;;;655.55;37.38;;;;;;;;;;6147399;23;20194;-60
2023/02/14 01:14:16;;;;;;;482.73;26.70;;;;;;;;;;6148647;23;20113;-62
2023/02/14 01:16:43;;;;;;;425.52;25.30;;;;;;;;;;6148423;23;20025;-60
2023/02/14 01:19:17;;;;;;;511.83;29.90;;;;;;;;;;6148691;23;20029;-60
2023/02/14 01:21:44;;;;;;;621.53;34.95;;;;;;;;;;6147533;23;20054;-60
2023/02/14 01:24:19;;;;;;;431.88;27.23;;;;;;;;;;6148025;23;20128;-62
2023/02/14 01:26:52;;;;;;;;;;;;;;;;;;6148477;23;20017;-56
2023/02/14 01:29:33;;;;;;;464.02;26.67;;;;;;;;;;6147974;23;19999;-63
2023/02/14 01:32:00;;;;;;;558.13;36.65;;;;;;;;;;6147445;23;20363;-63
2023/02/14 01:34:34;;;;;;;238.10;17.00;;;;;;;;;;6147295;23;20505;-63
2023/02/14 01:37:01;;;;;;;359.40;22.48;;;;;;;;;;6149246;23;20463;-63
2023/02/14 01:39:29;;;;;;;332.88;24.60;;;;;;;;;;6148299;23;20108;-64
2023/02/14 01:42:02;;;;;;;202.13;16.95;;;;;;;;;;6147085;23;20124;-63
2023/02/14 01:44:32;;;;;;;275.30;17.23;;;;;;;;;;6148246;23;20404;-59
2023/02/14 01:47:07;;;;;;;461.73;28.02;;;;;;;;;;6146865;23;20096;-62
2023/02/14 01:49:37;;;;;;;492.00;28.92;;;;;;;;;;6148253;23;20395;-62
2023/02/14 01:52:13;;;;;;;401.92;26.90;;;;;;;;;;6148841;23;20100;-62
2023/02/14 01:54:43;;;;;;;114.70;9.85;;;;;;;;;;6147110;23;20061;-62
2023/02/14 01:57:18;;;;;;;362.10;21.75;;;;;;;;;;6147855;23;20478;-62
2023/02/14 02:00:55;;;;;;;310.48;21.38;;;;;;;;;;6148263;23;20072;-62
2023/02/14 02:02:51;;;;;;;317.33;22.30;;;;;;;;;;6146745;23;20471;-61
2023/02/14 02:05:22;;;;;;;211.68;15.77;;;;;;;;;;6146952;23;20132;-63
2023/02/14 02:07:58;;;;;;;255.48;15.77;;;;;;;;;;6147729;23;20040;-59
2023/02/14 02:10:25;;;;;;;278.38;18.98;;;;;;;;;;6149255;23;20117;-59
2023/02/14 02:12:53;;;;;;;369.95;23.33;;;;;;;;;;6146149;23;20022;-59
2023/02/14 02:15:27;;;;;;;552.78;32.28;;;;;;;;;;6146672;23;20079;-57
2023/02/14 02:18:02;;;;;;;353.55;26.15;;;;;;;;;;6147806;23;20124;-59
2023/02/14 02:20:52;;;;;;;356.35;24.65;;;;;;;;;;6148024;23;20064;-59
2023/02/14 02:23:38;;;;;;;590.35;35.53;;;;;;;;;;6148331;23;20097;-62
2023/02/14 02:26:26;;;;;;;318.17;19.73;;;;;;;;;;6146502;23;20336;-64
2023/02/14 02:29:05;;;;;;;460.38;32.40;;;;;;;;;;6147855;23;20022;-63
2023/02/14 02:31:56;;;;;;;609.17;35.15;;;;;;;;;;6147317;23;20026;-63
2023/02/14 02:34:32;;;;;;;625.15;38.15;;;;;;;;;;6146989;23;20021;-63
2023/02/14 02:37:08;;;;;;;422.50;28.02;;;;;;;;;;6146741;23;20029;-63
2023/02/14 02:39:54;;;;;;;709.47;45.38;;;;;;;;;;6147926;23;20032;-64
2023/02/14 02:42:48;;;;;;;390.75;24.85;;;;;;;;;;6147897;23;20129;-56
2023/02/14 02:45:33;;;;;;;474.95;28.10;;;;;;;;;;6147640;23;20017;-60
2023/02/14 02:48:14;;;;;;;588.75;34.30;;;;;;;;;;6148945;23;20033;-60
2023/02/14 02:53:39;;;;;;;410.70;24.17;;;;;;;;;;6144011;23;20143;-60
2023/02/14 02:59:19;;;;;;;567.20;33.03;;;;;;;;;;6147836;23;20029;-60
2023/02/14 03:01:56;;;;;;;265.17;22.17;;;;;;;;;;6147229;23;20044;-62
2023/02/14 03:07:34;;;;;;;311.85;24.65;;;;;;;;;;6147770;23;20036;-62
2023/02/14 03:10:05;;;;;;;338.98;24.05;;;;;;;;;;6146770;23;20022;-62
2023/02/14 03:12:45;;;;;;;539.40;32.20;;;;;;;;;;6147384;23;20048;-62
2023/02/14 03:15:31;;;;;;;525.03;27.05;;;;;;;;;;6146240;23;20827;-62
2023/02/14 03:21:10;;;;;;;593.65;33.38;;;;;;;;;;6148202;23;20021;-57
2023/02/14 03:23:49;;;;;;;607.63;36.63;;;;;;;;;;6146285;23;20068;-57
2023/02/14 03:26:17;;;;;;;640.08;35.42;;;;;;;;;;6147003;23;20416;-57
2023/02/14 03:29:23;;;;;;;341.15;23.30;;;;;;;;;;6122429;23;20104;-55
2023/02/14 03:31:56;;;;;;;483.02;25.48;;;;;;;;;;6146065;23;20053;-57
2023/02/14 03:34:45;;;;;;;680.55;37.05;;;;;;;;;;6147195;23;20482;-57
2023/02/14 03:37:22;;;;;;;607.58;34.70;;;;;;;;;;6146551;23;20096;-57
2023/02/14 03:40:01;;;;;;;508.60;32.28;;;;;;;;;;6145034;23;20025;-57
2023/02/14 03:42:31;;;;;;;231.07;19.45;;;;;;;;;;6148744;23;20105;-58
2023/02/14 03:45:08;;;;;;;319.42;25.95;;;;;;;;;;6146877;23;20048;-58
2023/02/14 03:47:37;;;;;;;338.98;22.05;;;;;;;;;;6147631;23;20083;-57
2023/02/14 03:50:12;;;;;;;336.13;23.30;;;;;;;;;;6147237;23;20035;-58
2023/02/14 03:52:40;;;;;;;219.98;16.08;;;;;;;;;;6146967;23;20075;-56
2023/02/14 03:55:16;;;;;;;358.92;23.45;;;;;;;;;;6146577;23;20032;-56
2023/02/14 03:57:47;;;;;;;299.92;23.90;;;;;;;;;;6119400;23;20028;-68
2023/02/14 04:00:21;;;;;;;460.10;30.55;;;;;;;;;;6146879;23;20549;-63
2023/02/14 04:02:49;;;;;;;;;;;;;;;;;;6147177;23;20100;-63
2023/02/14 04:05:24;;;;;;;441.65;29.52;;;;;;;;;;6146336;23;19999;-62
2023/02/14 04:07:59;;;;;;;441.38;31.30;;;;;;;;;;6147504;23;20133;-62
2023/02/14 04:10:26;;;;;;;432.50;30.13;;;;;;;;;;6147516;23;20081;-62
2023/02/14 04:13:00;;;;;;;428.20;30.42;;;;;;;;;;6145749;23;20026;-62
2023/02/14 04:15:28;;;;;;;470.83;30.88;;;;;;;;;;6147395;23;20100;-62
2023/02/14 04:20:47;;;;;;;198.18;20.13;;;;;;;;;;6146817;23;20048;-68
2023/02/14 04:23:14;;;;;;;265.88;24.98;;;;;;;;;;6122102;23;20278;-68
2023/02/14 04:25:48;;;;;;;457.88;33.17;;;;;;;;;;6148292;23;20485;-68
2023/02/14 04:28:22;;;;;;;744.20;49.72;;;;;;;;;;6147264;23;20546;-67
2023/02/14 04:30:55;;;;;;;444.40;31.58;;;;;;;;;;6148863;23;20022;-68
2023/02/14 04:33:23;;;;;;;451.63;27.70;;;;;;;;;;6148619;23;20052;-68
2023/02/14 04:35:50;;;;;;;379.67;28.52;;;;;;;;;;6148316;23;20096;-64
2023/02/14 04:38:23;;;;;;;824.42;50.28;;;;;;;;;;6148625;23;20479;-64
2023/02/14 04:40:51;;;;;;;711.97;47.70;;;;;;;;;;6149935;23;20093;-62
2023/02/14 04:43:26;;;;;;;381.95;29.77;;;;;;;;;;6147973;23;20025;-62
2023/02/14 04:45:53;;;;;;;491.83;39.15;;;;;;;;;;6147726;23;20132;-62
2023/02/14 04:48:20;;;;;;;405.33;31.52;;;;;;;;;;6149089;23;20108;-62
2023/02/14 04:50:54;;;;;;;729.03;46.50;;;;;;;;;;6148688;23;20018;-63
2023/02/14 04:53:22;;;;;;;558.70;36.22;;;;;;;;;;6148330;23;20547;-62
2023/02/14 04:55:55;;;;;;;554.17;39.05;;;;;;;;;;6148808;23;20048;-61
2023/02/14 04:58:22;;;;;;;735.72;51.72;;;;;;;;;;6149081;23;20097;-62
2023/02/14 05:00:50;;;;;;;734.78;48.97;;;;;;;;;;6148583;23;20060;-62
2023/02/14 05:03:24;;;;;;;596.03;42.67;;;;;;;;;;6148922;23;20109;-62
2023/02/14 05:05:51;;;;;;;441.08;32.92;;;;;;;;;;6149306;23;20025;-62
2023/02/14 05:08:25;;;;;;;274.83;27.13;;;;;;;;;;6148020;23;20028;-62
2023/02/14 05:10:53;;;;;;;352.38;35.38;;;;;;;;;;6148412;23;20025;-62
2023/02/14 05:13:21;;;;;;;302.13;31.90;;;;;;;;;;6149358;23;20034;-68
2023/02/14 05:15:54;;;;;;;331.60;36.33;;;;;;;;;;6147961;23;20208;-60
2023/02/14 05:18:22;;;;;;;276.45;37.70;;;;;;;;;;6149312;23;20025;-61
2023/02/14 05:20:55;;;;;;;199.23;30.65;;;;;;;;;;6147638;23;20513;-61
2023/02/14 05:23:23;;;;;;;295.38;35.70;;;;;;;;;;6148526;23;20028;-61
2023/02/14 05:25:51;;;;;;;222.18;35.75;;;;;;;;;;6148864;23;20093;-61
2023/02/14 05:28:32;;;;;;;171.80;27.35;;;;;;;;;;6147877;23;20418;-61
2023/02/14 05:30:59;;;;;;;227.65;31.75;;;;;;;;;;6143705;23;20466;-61
2023/02/14 05:33:33;;;;;;;496.17;45.85;;;;;;;;;;6146566;23;20032;-57
2023/02/14 05:36:01;;;;;;;456.88;43.75;;;;;;;;;;6145979;23;20101;-62
2023/02/14 05:38:29;;;;;;;579.75;47.28;;;;;;;;;;6146312;23;20081;-61
2023/02/14 05:41:03;;;;;;;461.60;40.90;;;;;;;;;;6149177;23;20530;-61
2023/02/14 05:43:30;;;;;;;348.65;33.08;;;;;;;;;;6147150;23;20057;-61
2023/02/14 05:46:04;;;;;;;645.92;50.35;;;;;;;;;;6147509;23;20383;-61
2023/02/14 05:48:32;;;;;;;550.22;45.38;;;;;;;;;;6149885;23;20025;-61
2023/02/14 05:51:06;;;;;;;838.95;58.40;;;;;;;;;;6147948;23;20052;-67
2023/02/14 05:53:40;;;;;;;681.28;51.47;;;;;;;;;;6147859;23;20550;-68
2023/02/14 05:56:07;;;;;;;740.13;51.85;;;;;;;;;;6148438;23;20521;-68
2023/02/14 05:58:41;;;;;;;559.78;42.30;;;;;;;;;;6149393;23;20664;-68
2023/02/14 06:01:08;;;;;;;647.08;50.20;;;;;;;;;;6147700;23;20475;-68
2023/02/14 06:03:36;;;;;;;611.42;50.85;;;;;;;;;;6148257;23;20075;-67
2023/02/14 06:06:09;;;;;;;168.95;31.83;;;;;;;;;;6147252;23;20017;-68
2023/02/14 06:08:36;;;;;;;248.65;30.13;;;;;;;;;;6147017;23;20358;-68
2023/02/14 06:11:10;;;;;;;333.80;40.58;;;;;;;;;;6124501;23;20056;-68
2023/02/14 06:13:40;;;;;;;163.57;30.77;;;;;;;;;;6146042;23;20068;-58
2023/02/14 06:16:07;;;;;;;235.38;36.28;;;;;;;;;;6147784;23;20040;-57
2023/02/14 06:18:41;;;;;;;232.57;38.45;;;;;;;;;;6148051;23;20025;-57
2023/02/14 06:21:08;;;;;;;175.10;34.42;;;;;;;;;;6147402;23;20060;-57
2023/02/14 06:23:42;;;;;;;250.20;39.55;;;;;;;;;;6147341;23;20026;-57
2023/02/14 06:26:09;;;;;;;149.65;32.05;;;;;;;;;;6148714;23;20021;-57
2023/02/14 06:28:36;;;;;;;158.55;33.25;;;;;;;;;;6146305;23;20081;-57
2023/02/14 06:31:17;;;;;;;266.73;41.33;;;;;;;;;;6146668;23;20347;-62
2023/02/14 06:33:44;;;;;;;298.02;43.58;;;;;;;;;;6147748;23;20026;-64
2023/02/14 06:36:18;;;;;;;511.63;53.83;;;;;;;;;;6145952;23;20027;-64
2023/02/14 06:38:46;;;;;;;440.13;49.95;;;;;;;;;;6146098;23;20065;-63
2023/02/14 06:41:15;;;;;;;387.92;50.35;;;;;;;;;;6149161;23;20084;-64
2023/02/14 06:43:49;;;;;;;413.55;51.70;;;;;;;;;;6148386;23;20092;-63
2023/02/14 06:46:18;;;;;;;384.92;50.55;;;;;;;;;;6147290;23;20029;-64
2023/02/14 06:48:51;;;;;;;470.70;53.55;;;;;;;;;;6148480;23;20028;-67
2023/02/14 06:51:19;;;;;;;302.35;46.20;;;;;;;;;;6148326;23;20025;-58
2023/02/14 06:53:46;;;;;;;263.40;45.25;;;;;;;;;;6146624;23;20025;-61
2023/02/14 06:56:19;;;;;;;407.40;54.35;;;;;;;;;;6147079;23;20075;-61
2023/02/14 06:58:46;;;;;;;299.25;48.72;;;;;;;;;;6146575;23;20025;-61
2023/02/14 07:01:14;;;;;;;438.73;53.80;;;;;;;;;;6146828;23;20101;-61
2023/02/14 07:03:47;;;;;;;177.95;41.50;;;;;;;;;;6146349;23;20391;-61
2023/02/14 07:06:14;;;;;;;397.85;55.85;;;;;;;;;;6146419;23;20500;-61
2023/02/14 07:08:48;;;;;;;308.02;49.55;;;;;;;;;;6146814;23;20024;-58
2023/02/14 07:11:16;;;;;;;308.48;50.50;;;;;;;;;;6148530;23;20021;-61
2023/02/14 07:13:43;;;;;;;277.65;49.67;;;;;;;;;;6147551;23;20100;-61
2023/02/14 07:16:16;;;;;;;321.23;53.65;;;;;;;;;;6146874;23;20362;-61
2023/02/14 07:18:44;;;;;;;271.80;50.78;;;;;;;;;;6147237;23;20825;-61
2023/02/14 07:21:17;;;;;;;286.42;51.55;;;;;;;;;;6147074;23;20025;-61
2023/02/14 07:23:46;;;;;;;231.63;46.40;;;;;;;;;;6147880;23;20404;-61
2023/02/14 07:26:16;;;;;;;310.55;52.67;;;;;;;;;;6146995;23;20025;-63
2023/02/14 07:28:57;;;;;;;259.48;50.70;;;;;;;;;;6147165;23;20100;-57
2023/02/14 07:31:24;;;;;;;301.23;54.28;;;;;;;;;;6147558;23;20048;-58
2023/02/14 07:34:00;;;;;;;272.55;51.53;;;;;;;;;;6148308;23;20029;-58
2023/02/14 07:36:27;;;;;;;296.83;52.35;;;;;;;;;;6145713;23;20029;-58
2023/02/14 07:38:57;;;;;;;166.10;43.47;;;;;;;;;;6147427;23;20100;-57
2023/02/14 07:41:31;;;;;;;218.65;47.75;;;;;;;;;;6148210;23;20057;-56
2023/02/14 07:43:58;;;;;;;230.13;49.78;;;;;;;;;;6147903;23;20072;-59
2023/02/14 07:46:25;;;;;;;226.70;48.47;;;;;;;;;;6122040;23;20093;-58
2023/02/14 07:48:59;;;;;;;257.85;49.58;;;;;;;;;;6147839;23;20036;-61
2023/02/14 07:51:26;;;;;;;284.60;52.72;;;;;;;;;;6120607;23;20028;-60
2023/02/14 07:54:00;;;;;;;222.50;47.90;;;;;;;;;;6147391;23;20021;-60
2023/02/14 07:56:28;;;;;;;275.25;49.20;;;;;;;;;;6148310;23;20105;-60
2023/02/14 07:58:55;;;;;;;216.05;50.13;;;;;;;;;;6149358;23;20105;-60
2023/02/14 08:01:29;;;;;;;195.90;46.92;;;;;;;;;;6149314;23;20026;-61
2023/02/14 08:03:56;;;;;;;233.23;49.25;;;;;;;;;;6149403;23;20375;-60
2023/02/14 08:06:24;;;;;;;217.68;50.20;;;;;;;;;;6148745;23;20053;-63
2023/02/14 08:08:58;;;;;;;196.27;47.53;;;;;;;;;;6148251;23;20056;-61
2023/02/14 08:14:18;;;;;;;233.88;48.35;;;;;;;;;;6148341;23;20029;-62
2023/02/14 08:16:45;;;;;;;180.18;44.47;;;;;;;;;;6149298;23;20096;-62
2023/02/14 08:19:13;;;;;;;232.05;48.42;;;;;;;;;;6149715;23;20447;-62
2023/02/14 08:21:46;;;;;;;260.48;50.03;;;;;;;;;;6148604;23;20039;-63
2023/02/14 08:24:13;;;;;;;209.20;45.25;;;;;;;;;;6149499;23;20056;-63
2023/02/14 08:26:47;;;;;;;155.85;40.75;;;;;;;;;;6147514;23;20479;-57
2023/02/14 08:29:21;;;;;;;182.45;42.33;;;;;;;;;;6149810;23;20093;-63
2023/02/14 08:31:54;;;;;;;161.50;41.20;;;;;;;;;;6149222;23;20447;-63
2023/02/14 08:34:22;;;;;;;188.00;45.40;;;;;;;;;;6149596;23;20370;-64
2023/02/14 08:36:50;;;;;;;169.00;41.80;;;;;;;;;;6147475;23;20044;-63
2023/02/14 08:39:24;;;;;;;184.63;41.83;;;;;;;;;;6149405;23;20097;-63
2023/02/14 08:41:51;;;;;;;195.27;43.25;;;;;;;;;;6122509;23;20430;-63
2023/02/14 08:44:26;;;;;;;163.02;41.80;;;;;;;;;;6149065;23;20037;-67
2023/02/14 08:46:53;;;;;;;141.38;39.35;;;;;;;;;;6148635;23;20017;-60
2023/02/14 08:49:20;;;;;;;165.13;40.83;;;;;;;;;;6150168;23;20037;-60
2023/02/14 08:51:54;;;;;;;174.95;41.35;;;;;;;;;;6147364;23;20044;-60
2023/02/14 08:54:21;;;;;;;;;;;;;;;;;;6149450;23;20108;-60
2023/02/14 08:56:55;;;;;;;142.20;36.80;;;;;;;;;;6147876;23;20002;-60
2023/02/14 08:59:22;;;;;;;150.32;38.35;;;;;;;;;;6148826;23;20398;-60
2023/02/14 09:01:49;;;;;;;171.48;40.30;;;;;;;;;;6148813;23;20403;-58
2023/02/14 09:04:23;;;;;;;136.45;38.20;;;;;;;;;;6148576;23;20025;-67
2023/02/14 09:06:51;;;;;;;95.97;28.80;;;;;;;;;;6148452;23;20018;-67
2023/02/14 09:09:18;;;;;;;128.73;35.55;;;;;;;;;;6148641;23;20030;-67
2023/02/14 09:11:51;;;;;;;120.72;36.28;;;;;;;;;;6148776;23;20116;-67
2023/02/14 09:14:19;;;;;;;143.60;38.65;;;;;;;;;;6148622;23;20033;-67
2023/02/14 09:16:54;;;;;;;105.70;33.20;;;;;;;;;;6148054;23;20490;-67
2023/02/14 09:19:22;;;;;;;;;;;;;;;;;;6148260;23;20033;-67
2023/02/14 09:21:49;;;;;;;111.55;32.47;;;;;;;;;;6148404;23;19987;-61
2023/02/14 09:24:22;;;;;;;102.95;33.20;;;;;;;;;;6124324;23;20028;-60
2023/02/14 09:26:49;;;;;;;86.38;29.80;;;;;;;;;;6148273;23;20057;-60
2023/02/14 09:29:30;;;;;;;116.70;35.03;;;;;;;;;;6149386;23;20542;-60
2023/02/14 09:31:59;;;;;;;124.90;35.67;;;;;;;;;;6148578;23;20364;-60
2023/02/14 09:34:34;;;;;;;121.95;33.15;;;;;;;;;;6148781;23;20029;-60
2023/02/14 09:37:01;;;;;;;127.10;33.20;;;;;;;;;;6147528;23;20104;-60
2023/02/14 09:39:30;;;;;;;79.40;29.48;;;;;;;;;;6148874;23;20026;-60
2023/02/14 09:42:14;;;;;;;82.90;29.60;;;;;;;;;;6147527;23;20375;-60
2023/02/14 09:45:01;;;;;;;75.63;26.67;;;;;;;;;;6149568;23;20096;-58
2023/02/14 09:47:44;;;;;;;91.03;29.48;;;;;;;;;;6138321;23;20337;-57
2023/02/14 09:50:17;;;;;;;86.00;27.33;;;;;;;;;;6148252;23;20036;-59
2023/02/14 09:52:52;;;;;;;75.75;25.10;;;;;;;;;;6148849;23;20022;-59
2023/02/14 09:55:19;;;;;;;76.45;25.58;;;;;;;;;;6148448;23;20100;-59
2023/02/14 09:57:58;;;;;;;53.45;22.73;;;;;;;;;;6147883;23;20045;-59
2023/02/14 10:00:36;;;;;;;62.22;22.35;;;;;;;;;;6147119;23;20060;-62
2023/02/14 10:03:18;;;;;;;73.78;21.40;;;;;;;;;;6149149;23;20021;-60
2023/02/14 10:06:12;;;;;;;56.17;19.77;;;;;;;;;;6147443;23;20566;-60
2023/02/14 10:08:47;;;;;;;44.50;16.73;;;;;;;;;;6148119;23;20499;-60
2023/02/14 10:11:22;;;;;;;48.03;17.70;;;;;;;;;;6148404;23;20025;-60
2023/02/14 10:13:52;;;;;;;34.75;15.40;;;;;;;;;;6148554;23;20517;-60
2023/02/14 10:16:23;;;;;;;42.13;16.13;;;;;;;;;;6146856;23;20542;-60
2023/02/14 10:19:20;;;;;;;35.33;11.43;;;;;;;;;;6148531;23;20778;-57
2023/02/14 10:21:56;;;;;;;37.60;13.88;;;;;;;;;;6147120;23;20498;-62
2023/02/14 10:24:36;;;;;;;32.50;14.77;;;;;;;;;;6148256;23;20032;-62
2023/02/14 10:27:15;;;;;;;33.20;13.95;;;;;;;;;;6147284;23;20100;-62
2023/02/14 10:29:55;;;;;;;31.67;12.45;;;;;;;;;;6147743;23;20029;-62
2023/02/14 10:32:35;;;;;;;33.35;12.10;;;;;;;;;;6149328;23;20028;-62
2023/02/14 10:35:31;;;;;;;26.40;10.93;;;;;;;;;;6147327;23;20029;-62
2023/02/14 10:38:16;;;;;;;22.35;9.20;;;;;;;;;;6146061;23;20151;-60
2023/02/14 10:41:02;;;;;;;26.13;11.15;;;;;;;;;;6148270;23;20032;-64
2023/02/14 10:43:52;;;;;;;30.92;9.88;;;;;;;;;;6148995;23;20447;-61
2023/02/14 10:46:38;;;;;;;27.48;10.30;;;;;;;;;;6148345;23;20036;-62
2023/02/14 10:49:30;;;;;;;32.20;10.82;;;;;;;;;;6148235;23;20100;-61
2023/02/14 10:52:03;;;;;;;25.08;8.95;;;;;;;;;;6146953;23;20087;-62
2023/02/14 10:54:38;;;;;;;25.13;10.82;;;;;;;;;;6147529;23;20129;-61
2023/02/14 10:57:08;;;;;;;23.58;8.80;;;;;;;;;;6147352;23;20025;-56
2023/02/14 10:59:57;;;;;;;19.15;8.18;;;;;;;;;;6149161;23;20053;-61
2023/02/14 11:02:38;;;;;;;30.88;8.25;;;;;;;;;;6148451;23;20024;-58
2023/02/14 11:05:33;;;;;;;22.33;7.95;;;;;;;;;;6146630;23;20096;-58
2023/02/14 11:08:01;;;;;;;21.55;7.82;;;;;;;;;;6148270;23;20053;-57
2023/02/14 11:10:35;;;;;;;21.27;6.32;;;;;;;;;;6147531;23;20053;-57
2023/02/14 11:13:03;;;;;;;21.58;8.13;;;;;;;;;;6147017;23;20056;-58
2023/02/14 11:15:31;;;;;;;20.00;7.45;;;;;;;;;;6148250;23;20029;-59
2023/02/14 11:18:17;;;;;;;17.40;6.32;;;;;;;;;;6147768;23;20040;-67
2023/02/14 11:20:58;;;;;;;13.82;6.45;;;;;;;;;;6148607;23;20029;-61
2023/02/14 11:23:33;;;;;;;16.17;6.65;;;;;;;;;;6148753;23;20022;-60
2023/02/14 11:26:16;;;;;;;19.80;6.53;;;;;;;;;;6146432;23;20485;-60
2023/02/14 11:29:02;;;;;;;17.02;6.93;;;;;;;;;;6147698;23;20064;-60
2023/02/14 11:31:43;;;;;;;16.75;5.80;;;;;;;;;;6147720;23;20059;-60
2023/02/14 11:34:35;;;;;;;25.67;6.00;;;;;;;;;;6146600;23;20084;-58
2023/02/14 11:37:25;;;;;;;16.50;5.93;;;;;;;;;;6140788;23;20068;-57
2023/02/14 11:39:56;;;;;;;12.30;4.93;;;;;;;;;;6147841;23;20471;-63
2023/02/14 11:42:36;;;;;;;21.92;5.80;;;;;;;;;;6145594;23;20029;-63
2023/02/14 11:45:04;;;;;;;14.35;4.78;;;;;;;;;;6148840;23;20061;-63
2023/02/14 11:47:41;;;;;;;20.88;4.88;;;;;;;;;;6147605;23;20053;-63
2023/02/14 11:50:23;;;;;;;10.98;4.43;;;;;;;;;;6147668;23;20088;-63
2023/02/14 11:52:58;;;;;;;22.95;5.38;;;;;;;;;;6146848;23;20104;-57
2023/02/14 11:55:27;;;;;;;19.98;5.70;;;;;;;;;;6146913;23;20467;-59
2023/02/14 11:58:04;;;;;;;19.20;4.97;;;;;;;;;;6147190;23;20059;-66
2023/02/14 12:00:32;;;;;;;19.33;5.55;;;;;;;;;;6146355;23;20486;-67
2023/02/14 12:03:01;;;;;;;15.07;4.95;;;;;;;;;;6147627;23;20116;-67
2023/02/14 12:05:45;;;;;;;14.93;5.00;;;;;;;;;;6146737;23;20391;-66
2023/02/14 12:08:12;;;;;;;12.63;5.15;;;;;;;;;;6120661;23;20028;-67
2023/02/14 12:11:00;;;;;;;15.18;4.60;;;;;;;;;;6146926;23;20084;-67
2023/02/14 12:13:28;;;;;;;17.67;5.57;;;;;;;;;;6148729;23;20021;-61
2023/02/14 12:16:02;;;;;;;11.70;4.40;;;;;;;;;;6146293;23;20035;-60
2023/02/14 12:18:36;;;;;;;14.80;4.82;;;;;;;;;;6147095;23;20030;-60
2023/02/14 12:21:11;;;;;;;10.48;5.13;;;;;;;;;;6121529;23;20412;-61
2023/02/14 12:23:45;;;;;;;15.38;5.35;;;;;;;;;;6144475;23;20905;-60
2023/02/14 12:26:28;;;;;;;8.93;4.80;;;;;;;;;;6145445;23;20573;-61
2023/02/14 12:29:25;;;;;;;15.82;5.28;;;;;;;;;;6147166;23;20374;-59
2023/02/14 12:32:00;;;;;;;20.13;5.80;;;;;;;;;;6141099;23;20546;-67
2023/02/14 12:34:28;;;;;;;12.50;5.95;;;;;;;;;;6147590;23;20025;-62
2023/02/14 12:37:07;;;;;;;19.00;5.90;;;;;;;;;;6146904;23;20076;-62
2023/02/14 12:39:37;;;;;;;15.07;5.95;;;;;;;;;;6146270;23;20418;-62
2023/02/14 12:42:33;;;;;;;14.23;5.55;;;;;;;;;;6148042;23;20057;-61
2023/02/14 12:45:09;;;;;;;15.38;6.07;;;;;;;;;;6149379;23;20253;-61
2023/02/14 12:47:58;;;;;;;14.82;5.97;;;;;;;;;;6148653;23;20018;-63
2023/02/14 12:50:28;;;;;;;12.80;5.50;;;;;;;;;;6147931;23;20136;-67
2023/02/14 12:53:21;;;;;;;16.90;5.95;;;;;;;;;;6148338;23;20399;-66
2023/02/14 12:55:52;;;;;;;13.70;6.07;;;;;;;;;;6147845;23;20036;-61
2023/02/14 12:58:39;;;;;;;20.52;6.85;;;;;;;;;;6148868;23;20025;-62
2023/02/14 13:01:13;;;;;;;13.13;5.57;;;;;;;;;;6148937;23;20100;-61
2023/02/14 13:04:18;;;;;;;13.00;5.90;;;;;;;;;;6148016;23;20022;-61
2023/02/14 13:07:11;;;;;;;17.17;5.90;;;;;;;;;;6147994;23;20383;-62
2023/02/14 13:09:58;;;;;;;10.98;6.10;;;;;;;;;;6148172;23;20024;-62
2023/02/14 13:12:46;;;;;;;14.95;6.03;;;;;;;;;;6149112;23;20474;-58
2023/02/14 13:15:20;;;;;;;14.98;6.85;;;;;;;;;;6149094;23;20100;-57
2023/02/14 13:18:02;;;;;;;13.63;6.78;;;;;;;;;;6149195;23;20053;-58
2023/02/14 13:20:36;;;;;;;15.90;6.55;;;;;;;;;;6149341;23;20030;-58
2023/02/14 13:23:29;;;;;;;15.13;6.93;;;;;;;;;;6148855;23;20053;-58
2023/02/14 13:26:00;;;;;;;11.65;7.20;;;;;;;;;;6133293;23;20026;-56
2023/02/14 13:28:54;;;;;;;14.23;6.80;;;;;;;;;;6147646;23;20494;-59
2023/02/14 13:31:22;;;;;;;12.82;7.88;;;;;;;;;;6147208;23;20530;-63
2023/02/14 13:33:58;;;;;;;15.43;7.68;;;;;;;;;;6147439;23;20088;-57
2023/02/14 13:36:26;;;;;;;14.35;7.85;;;;;;;;;;6149000;23;20494;-58
2023/02/14 13:38:55;;;;;;;18.27;7.15;;;;;;;;;;6148027;23;20025;-57
2023/02/14 13:41:29;;;;;;;16.40;7.78;;;;;;;;;;6148369;23;20479;-59
2023/02/14 13:44:04;;;;;;;14.00;7.60;;;;;;;;;;6148434;23;20097;-58
2023/02/14 13:46:31;;;;;;;16.73;8.88;;;;;;;;;;6147961;23;20026;-57
2023/02/14 13:49:17;;;;;;;16.35;8.00;;;;;;;;;;6146305;23;20021;-57
2023/02/14 13:51:49;;;;;;;21.60;8.60;;;;;;;;;;6148305;23;20053;-58
2023/02/14 13:54:23;;;;;;;;;;;;;;;;;;6149276;23;20021;-56
2023/02/14 13:56:50;;;;;;;17.13;8.23;;;;;;;;;;6147608;23;19959;-58
2023/02/14 13:59:28;;;;;;;11.52;7.43;;;;;;;;;;6148960;23;20022;-56
2023/02/14 14:02:16;;;;;;;16.25;8.50;;;;;;;;;;6147717;23;20022;-59
2023/02/14 14:04:49;;;;;;;21.30;8.70;;;;;;;;;;6147430;23;20017;-59
2023/02/14 14:07:28;;;;;;;14.30;8.20;;;;;;;;;;6147582;23;20018;-56
2023/02/14 14:10:03;;;;;;;14.98;7.95;;;;;;;;;;6147165;23;20029;-57
2023/02/14 14:12:33;;;;;;;18.02;8.68;;;;;;;;;;6148882;23;20043;-64
2023/02/14 14:15:07;;;;;;;17.38;8.32;;;;;;;;;;6149764;23;20084;-63
2023/02/14 14:17:35;;;;;;;17.30;8.18;;;;;;;;;;6147130;23;20035;-63
2023/02/14 14:20:21;;;;;;;16.33;8.20;;;;;;;;;;6147534;23;20024;-63
2023/02/14 14:22:50;;;;;;;15.57;8.15;;;;;;;;;;6147415;23;20036;-63
2023/02/14 14:25:38;;;;;;;19.13;8.07;;;;;;;;;;6147838;23;20101;-63
2023/02/14 14:28:19;;;;;;;21.15;9.05;;;;;;;;;;6148191;23;20088;-55
2023/02/14 14:31:00;;;;;;;18.33;9.15;;;;;;;;;;6117866;23;20077;-58
2023/02/14 14:33:32;;;;;;;26.95;9.20;;;;;;;;;;6119617;23;20018;-58
2023/02/14 14:36:06;;;;;;;20.17;9.10;;;;;;;;;;6118826;23;20121;-57
2023/02/14 14:38:45;;;;;;;20.38;8.82;;;;;;;;;;6117206;23;20032;-57
2023/02/14 14:41:18;;;;;;;16.38;8.95;;;;;;;;;;6118904;23;20068;-57
2023/02/14 14:43:46;;;;;;;23.30;9.43;;;;;;;;;;6117874;23;20404;-58
2023/02/14 14:46:15;;;;;;;19.95;9.70;;;;;;;;;;6118547;23;20022;-58
2023/02/14 14:48:50;;;;;;;18.50;9.00;;;;;;;;;;6117867;23;20400;-61
2023/02/14 14:51:28;;;;;;;19.52;9.32;;;;;;;;;;6119516;23;20021;-61
2023/02/14 14:54:04;;;;;;;19.88;9.55;;;;;;;;;;6117714;23;20364;-61
2023/02/14 14:56:36;;;;;;;18.08;8.93;;;;;;;;;;6118325;23;20522;-61
2023/02/14 14:59:21;;;;;;;23.15;11.73;;;;;;;;;;6119249;23;20021;-61
2023/02/14 15:01:50;;;;;;;19.75;9.88;;;;;;;;;;6116123;23;20566;-62
2023/02/14 15:04:27;;;;;;;22.27;11.02;;;;;;;;;;6117852;23;20101;-57
2023/02/14 15:06:56;;;;;;;21.85;11.35;;;;;;;;;;6117085;23;20105;-67
2023/02/14 15:09:32;;;;;;;19.77;11.73;;;;;;;;;;6118189;23;20026;-67
2023/02/14 15:15:01;;;;;;;26.08;12.45;;;;;;;;;;6117587;23;20129;-67